sensor_id;sensor_type;location;lat;lon;timestamp;pressure;altitude;pressure_sealevel;temperature;humidity
11345;BME280;5727;42.600;23.028;2024-02-21T00:01:16;94292.75;;;7.27;100.00
11345;BME280;5727;42.600;23.028;2024-02-21T00:03:45;94297.06;;;7.32;100.00
11345;BME280;5727;42.600;23.028;2024-02-21T00:06:12;94292.34;;;7.34;100.00
11345;BME280;5727;42.600;23.028;2024-02-21T00:08:39;94287.22;;;7.29;100.00
11345;BME280;5727;42.600;23.028;2024-02-21T00:11:07;94288.50;;;7.31;100.00
11345;BME280;5727;42.600;23.028;2024-02-21T00:13:35;94289.06;;;7.28;100.00
11345;BME280;5727;42.600;23.028;2024-02-21T00:16:03;94280.94;;;6.89;100.00
11345;BME280;5727;42.600;23.028;2024-02-21T00:18:30;94291.31;;;6.62;100.00
11345;BME280;5727;42.600;23.028;2024-02-21T00:20:59;94288.03;;;6.57;100.00
11345;BME280;5727;42.600;23.028;2024-02-21T00:23:27;94280.56;;;6.18;100.00
11345;BME280;5727;42.600;23.028;2024-02-21T00:25:55;94285.50;;;6.01;100.00
11345;BME280;5727;42.600;23.028;2024-02-21T00:28:22;94285.31;;;5.97;100.00
11345;BME280;5727;42.600;23.028;2024-02-21T00:30:49;94280.66;;;5.76;100.00
11345;BME280;5727;42.600;23.028;2024-02-21T00:33:18;94286.88;;;5.75;100.00
11345;BME280;5727;42.600;23.028;2024-02-21T00:35:46;94282.81;;;5.69;100.00
11345;BME280;5727;42.600;23.028;2024-02-21T00:38:14;94282.13;;;5.82;100.00
11345;BME280;5727;42.600;23.028;2024-02-21T00:40:41;94278.00;;;5.99;100.00
11345;BME280;5727;42.600;23.028;2024-02-21T00:43:09;94274.19;;;6.10;100.00
11345;BME280;5727;42.600;23.028;2024-02-21T00:45:36;94270.94;;;6.18;100.00
11345;BME280;5727;42.600;23.028;2024-02-21T00:48:06;94272.38;;;6.24;100.00
11345;BME280;5727;42.600;23.028;2024-02-21T00:50:34;94273.50;;;6.37;100.00
11345;BME280;5727;42.600;23.028;2024-02-21T00:53:03;94273.03;;;6.35;100.00
11345;BME280;5727;42.600;23.028;2024-02-21T00:55:31;94269.59;;;6.21;100.00
11345;BME280;5727;42.600;23.028;2024-02-21T00:57:59;94269.44;;;6.31;100.00
11345;BME280;5727;42.600;23.028;2024-02-21T01:00:25;94268.94;;;6.29;100.00
11345;BME280;5727;42.600;23.028;2024-02-21T01:02:53;94265.41;;;6.38;100.00
11345;BME280;5727;42.600;23.028;2024-02-21T01:05:20;94268.16;;;6.47;100.00
11345;BME280;5727;42.600;23.028;2024-02-21T01:07:48;94263.63;;;6.53;100.00
11345;BME280;5727;42.600;23.028;2024-02-21T01:10:16;94265.94;;;6.54;100.00
11345;BME280;5727;42.600;23.028;2024-02-21T01:12:45;94258.03;;;6.59;100.00
11345;BME280;5727;42.600;23.028;2024-02-21T01:15:12;94255.91;;;6.61;100.00
11345;BME280;5727;42.600;23.028;2024-02-21T01:17:39;94260.16;;;6.71;100.00
11345;BME280;5727;42.600;23.028;2024-02-21T01:20:08;94260.66;;;6.73;100.00
11345;BME280;5727;42.600;23.028;2024-02-21T01:22:35;94256.59;;;6.80;100.00
11345;BME280;5727;42.600;23.028;2024-02-21T01:25:04;94257.31;;;6.86;100.00
11345;BME280;5727;42.600;23.028;2024-02-21T01:27:31;94256.41;;;6.77;100.00
11345;BME280;5727;42.600;23.028;2024-02-21T01:29:59;94254.78;;;6.81;100.00
11345;BME280;5727;42.600;23.028;2024-02-21T01:32:28;94245.63;;;6.83;100.00
11345;BME280;5727;42.600;23.028;2024-02-21T01:34:55;94240.97;;;6.80;100.00
11345;BME280;5727;42.600;23.028;2024-02-21T01:37:22;94243.09;;;6.78;100.00
11345;BME280;5727;42.600;23.028;2024-02-21T01:39:50;94236.47;;;6.72;100.00
11345;BME280;5727;42.600;23.028;2024-02-21T01:42:17;94246.94;;;6.67;100.00
11345;BME280;5727;42.600;23.028;2024-02-21T01:44:45;94239.44;;;6.66;100.00
11345;BME280;5727;42.600;23.028;2024-02-21T01:47:16;94241.75;;;6.67;100.00
11345;BME280;5727;42.600;23.028;2024-02-21T01:49:44;94236.72;;;6.71;100.00
11345;BME280;5727;42.600;23.028;2024-02-21T01:52:14;94239.06;;;6.72;100.00
11345;BME280;5727;42.600;23.028;2024-02-21T01:54:42;94239.06;;;6.72;100.00
11345;BME280;5727;42.600;23.028;2024-02-21T01:57:10;94239.56;;;6.74;100.00
11345;BME280;5727;42.600;23.028;2024-02-21T01:59:38;94234.81;;;6.76;100.00
11345;BME280;5727;42.600;23.028;2024-02-21T02:02:06;94232.69;;;6.78;100.00
11345;BME280;5727;42.600;23.028;2024-02-21T02:04:34;94237.41;;;6.76;100.00
11345;BME280;5727;42.600;23.028;2024-02-21T02:07:03;94239.75;;;6.78;100.00
11345;BME280;5727;42.600;23.028;2024-02-21T02:09:30;94236.38;;;6.77;100.00
11345;BME280;5727;42.600;23.028;2024-02-21T02:11:58;94233.94;;;6.81;100.00
11345;BME280;5727;42.600;23.028;2024-02-21T02:14:26;94228.44;;;6.82;100.00
11345;BME280;5727;42.600;23.028;2024-02-21T02:16:53;94233.66;;;6.82;100.00
11345;BME280;5727;42.600;23.028;2024-02-21T02:19:21;94225.34;;;6.80;100.00
11345;BME280;5727;42.600;23.028;2024-02-21T02:21:54;94226.13;;;6.81;100.00
11345;BME280;5727;42.600;23.028;2024-02-21T02:24:26;94221.13;;;6.71;100.00
11345;BME280;5727;42.600;23.028;2024-02-21T02:26:53;94218.25;;;6.72;100.00
11345;BME280;5727;42.600;23.028;2024-02-21T02:29:21;94214.56;;;6.73;100.00
11345;BME280;5727;42.600;23.028;2024-02-21T02:31:49;94214.56;;;6.73;100.00
11345;BME280;5727;42.600;23.028;2024-02-21T02:34:16;94208.56;;;6.73;100.00
11345;BME280;5727;42.600;23.028;2024-02-21T02:36:44;94211.66;;;6.75;100.00
11345;BME280;5727;42.600;23.028;2024-02-21T02:39:15;94207.25;;;6.75;100.00
11345;BME280;5727;42.600;23.028;2024-02-21T02:41:46;94205.91;;;6.78;100.00
11345;BME280;5727;42.600;23.028;2024-02-21T02:44:14;94203.84;;;6.75;100.00
11345;BME280;5727;42.600;23.028;2024-02-21T02:46:42;94206.47;;;6.75;100.00
11345;BME280;5727;42.600;23.028;2024-02-21T02:49:10;94208.56;;;6.73;100.00
11345;BME280;5727;42.600;23.028;2024-02-21T02:51:41;94213.09;;;6.67;100.00
11345;BME280;5727;42.600;23.028;2024-02-21T02:54:09;94217.31;;;6.49;100.00
11345;BME280;5727;42.600;23.028;2024-02-21T02:56:36;94215.50;;;6.50;100.00
11345;BME280;5727;42.600;23.028;2024-02-21T02:59:05;94213.97;;;6.49;100.00
11345;BME280;5727;42.600;23.028;2024-02-21T03:01:34;94215.91;;;6.43;100.00
11345;BME280;5727;42.600;23.028;2024-02-21T03:04:02;94219.72;;;6.46;100.00
11345;BME280;5727;42.600;23.028;2024-02-21T03:06:29;94216.56;;;6.49;100.00
11345;BME280;5727;42.600;23.028;2024-02-21T03:08:56;94222.66;;;6.58;100.00
11345;BME280;5727;42.600;23.028;2024-02-21T03:11:27;94221.31;;;6.61;100.00
11345;BME280;5727;42.600;23.028;2024-02-21T03:13:56;94223.03;;;6.65;100.00
11345;BME280;5727;42.600;23.028;2024-02-21T03:16:25;94220.84;;;6.72;100.00
11345;BME280;5727;42.600;23.028;2024-02-21T03:18:54;94224.88;;;6.78;100.00
11345;BME280;5727;42.600;23.028;2024-02-21T03:21:21;94230.56;;;6.80;100.00
11345;BME280;5727;42.600;23.028;2024-02-21T03:23:48;94229.03;;;6.79;100.00
11345;BME280;5727;42.600;23.028;2024-02-21T03:26:15;94232.97;;;6.77;100.00
11345;BME280;5727;42.600;23.028;2024-02-21T03:28:43;94238.88;;;6.82;100.00
11345;BME280;5727;42.600;23.028;2024-02-21T03:31:12;94242.72;;;6.85;100.00
11345;BME280;5727;42.600;23.028;2024-02-21T03:33:43;94240.63;;;6.87;100.00
11345;BME280;5727;42.600;23.028;2024-02-21T03:36:13;94238.50;;;6.89;100.00
11345;BME280;5727;42.600;23.028;2024-02-21T03:38:41;94240.25;;;6.93;100.00
11345;BME280;5727;42.600;23.028;2024-02-21T03:41:10;94240.13;;;6.98;100.00
11345;BME280;5727;42.600;23.028;2024-02-21T03:43:39;94238.31;;;6.99;100.00
11345;BME280;5727;42.600;23.028;2024-02-21T03:46:09;94242.16;;;7.01;100.00
11345;BME280;5727;42.600;23.028;2024-02-21T03:48:36;94247.38;;;7.01;100.00
11345;BME280;5727;42.600;23.028;2024-02-21T03:51:05;94242.63;;;7.03;100.00
11345;BME280;5727;42.600;23.028;2024-02-21T03:53:32;94245.84;;;7.00;100.00
11345;BME280;5727;42.600;23.028;2024-02-21T03:56:01;94243.53;;;6.99;100.00
11345;BME280;5727;42.600;23.028;2024-02-21T03:58:31;94244.75;;;7.01;100.00
11345;BME280;5727;42.600;23.028;2024-02-21T04:01:01;94248.44;;;7.00;100.00
11345;BME280;5727;42.600;23.028;2024-02-21T04:03:28;94247.56;;;6.91;100.00
11345;BME280;5727;42.600;23.028;2024-02-21T04:05:56;94247.56;;;6.91;100.00
11345;BME280;5727;42.600;23.028;2024-02-21T04:08:25;94252.97;;;6.95;100.00
11345;BME280;5727;42.600;23.028;2024-02-21T04:10:52;94254.81;;;6.94;100.00
11345;BME280;5727;42.600;23.028;2024-02-21T04:13:20;94255.63;;;6.76;100.00
11345;BME280;5727;42.600;23.028;2024-02-21T04:15:48;94248.53;;;6.82;100.00
11345;BME280;5727;42.600;23.028;2024-02-21T04:18:15;94248.78;;;6.80;100.00
11345;BME280;5727;42.600;23.028;2024-02-21T04:20:44;94245.22;;;6.76;100.00
11345;BME280;5727;42.600;23.028;2024-02-21T04:23:12;94244.84;;;6.69;100.00
11345;BME280;5727;42.600;23.028;2024-02-21T04:25:41;94246.88;;;6.59;100.00
11345;BME280;5727;42.600;23.028;2024-02-21T04:28:09;94241.84;;;6.62;100.00
11345;BME280;5727;42.600;23.028;2024-02-21T04:30:36;94250.44;;;6.63;100.00
11345;BME280;5727;42.600;23.028;2024-02-21T04:33:05;94248.31;;;6.65;100.00
11345;BME280;5727;42.600;23.028;2024-02-21T04:35:36;94246.75;;;6.64;100.00
11345;BME280;5727;42.600;23.028;2024-02-21T04:38:04;94246.47;;;6.65;100.00
11345;BME280;5727;42.600;23.028;2024-02-21T04:40:33;94248.59;;;6.63;100.00
11345;BME280;5727;42.600;23.028;2024-02-21T04:43:02;94249.66;;;6.62;100.00
11345;BME280;5727;42.600;23.028;2024-02-21T04:45:34;94251.28;;;6.58;100.00
11345;BME280;5727;42.600;23.028;2024-02-21T04:48:02;94245.69;;;6.51;100.00
11345;BME280;5727;42.600;23.028;2024-02-21T04:50:33;94245.22;;;6.49;100.00
11345;BME280;5727;42.600;23.028;2024-02-21T04:53:07;94253.66;;;6.41;100.00
11345;BME280;5727;42.600;23.028;2024-02-21T04:55:35;94248.25;;;6.37;100.00
11345;BME280;5727;42.600;23.028;2024-02-21T04:58:04;94261.34;;;6.32;100.00
11345;BME280;5727;42.600;23.028;2024-02-21T05:00:31;94256.53;;;6.26;100.00
11345;BME280;5727;42.600;23.028;2024-02-21T05:03:02;94252.16;;;6.21;100.00
11345;BME280;5727;42.600;23.028;2024-02-21T05:05:30;94254.81;;;6.03;100.00
11345;BME280;5727;42.600;23.028;2024-02-21T05:07:59;94251.75;;;5.96;100.00
11345;BME280;5727;42.600;23.028;2024-02-21T05:10:26;94252.97;;;5.85;100.00
11345;BME280;5727;42.600;23.028;2024-02-21T05:12:54;94254.78;;;5.66;100.00
11345;BME280;5727;42.600;23.028;2024-02-21T05:15:23;94257.16;;;5.62;100.00
11345;BME280;5727;42.600;23.028;2024-02-21T05:17:50;94258.78;;;5.39;100.00
11345;BME280;5727;42.600;23.028;2024-02-21T05:20:18;94252.22;;;5.42;100.00
11345;BME280;5727;42.600;23.028;2024-02-21T05:22:46;94253.00;;;5.42;100.00
11345;BME280;5727;42.600;23.028;2024-02-21T05:25:14;94256.66;;;5.41;100.00
11345;BME280;5727;42.600;23.028;2024-02-21T05:27:41;94249.91;;;5.22;100.00
11345;BME280;5727;42.600;23.028;2024-02-21T05:30:10;94250.00;;;5.12;100.00
11345;BME280;5727;42.600;23.028;2024-02-21T05:32:42;94240.34;;;5.17;100.00
11345;BME280;5727;42.600;23.028;2024-02-21T05:35:10;94248.19;;;5.12;100.00
11345;BME280;5727;42.600;23.028;2024-02-21T05:37:39;94248.97;;;5.13;100.00
11345;BME280;5727;42.600;23.028;2024-02-21T05:40:08;94254.44;;;5.11;100.00
11345;BME280;5727;42.600;23.028;2024-02-21T05:42:39;94252.06;;;5.15;100.00
11345;BME280;5727;42.600;23.028;2024-02-21T05:45:06;94261.69;;;5.14;100.00
11345;BME280;5727;42.600;23.028;2024-02-21T05:47:34;94265.00;;;5.20;100.00
11345;BME280;5727;42.600;23.028;2024-02-21T05:50:04;94261.69;;;5.14;100.00
11345;BME280;5727;42.600;23.028;2024-02-21T05:52:31;94269.41;;;5.19;100.00
11345;BME280;5727;42.600;23.028;2024-02-21T05:54:58;94274.47;;;5.29;100.00
11345;BME280;5727;42.600;23.028;2024-02-21T05:57:26;94283.19;;;5.38;100.00
11345;BME280;5727;42.600;23.028;2024-02-21T05:59:53;94275.38;;;5.20;100.00
11345;BME280;5727;42.600;23.028;2024-02-21T06:02:22;94276.09;;;5.02;100.00
11345;BME280;5727;42.600;23.028;2024-02-21T06:04:49;94282.59;;;4.76;100.00
11345;BME280;5727;42.600;23.028;2024-02-21T06:07:19;94280.16;;;4.84;100.00
11345;BME280;5727;42.600;23.028;2024-02-21T06:09:51;94286.63;;;4.87;100.00
11345;BME280;5727;42.600;23.028;2024-02-21T06:12:18;94294.34;;;4.97;100.00
11345;BME280;5727;42.600;23.028;2024-02-21T06:14:46;94290.06;;;5.06;100.00
11345;BME280;5727;42.600;23.028;2024-02-21T06:17:14;94292.25;;;5.22;100.00
11345;BME280;5727;42.600;23.028;2024-02-21T06:19:43;94294.66;;;5.37;100.00
11345;BME280;5727;42.600;23.028;2024-02-21T06:22:11;94289.25;;;5.52;100.00
11345;BME280;5727;42.600;23.028;2024-02-21T06:24:39;94293.19;;;5.69;100.00
11345;BME280;5727;42.600;23.028;2024-02-21T06:27:09;94296.66;;;5.83;100.00
11345;BME280;5727;42.600;23.028;2024-02-21T06:29:36;94300.28;;;5.87;100.00
11345;BME280;5727;42.600;23.028;2024-02-21T06:32:05;94308.56;;;5.89;100.00
11345;BME280;5727;42.600;23.028;2024-02-21T06:34:33;94314.13;;;6.01;100.00
11345;BME280;5727;42.600;23.028;2024-02-21T06:37:00;94321.31;;;6.09;100.00
11345;BME280;5727;42.600;23.028;2024-02-21T06:39:29;94316.59;;;6.11;100.00
11345;BME280;5727;42.600;23.028;2024-02-21T06:41:58;94320.94;;;6.15;100.00
11345;BME280;5727;42.600;23.028;2024-02-21T06:44:26;94316.63;;;6.24;100.00
11345;BME280;5727;42.600;23.028;2024-02-21T06:47:00;94323.78;;;6.32;100.00
11345;BME280;5727;42.600;23.028;2024-02-21T06:49:35;94324.44;;;6.43;100.00
11345;BME280;5727;42.600;23.028;2024-02-21T06:52:04;94331.78;;;6.55;100.00
11345;BME280;5727;42.600;23.028;2024-02-21T06:54:31;94320.44;;;6.64;100.00
11345;BME280;5727;42.600;23.028;2024-02-21T06:56:59;94322.09;;;6.74;100.00
11345;BME280;5727;42.600;23.028;2024-02-21T06:59:26;94328.28;;;6.78;100.00
11345;BME280;5727;42.600;23.028;2024-02-21T07:01:54;94333.75;;;6.76;100.00
11345;BME280;5727;42.600;23.028;2024-02-21T07:04:22;94330.28;;;6.67;100.00
11345;BME280;5727;42.600;23.028;2024-02-21T07:06:49;94330.69;;;6.74;100.00
11345;BME280;5727;42.600;23.028;2024-02-21T07:09:16;94331.66;;;6.78;100.00
11345;BME280;5727;42.600;23.028;2024-02-21T07:11:43;94334.38;;;6.87;100.00
11345;BME280;5727;42.600;23.028;2024-02-21T07:14:13;94337.66;;;6.92;100.00
11345;BME280;5727;42.600;23.028;2024-02-21T07:16:40;94337.84;;;6.96;100.00
11345;BME280;5727;42.600;23.028;2024-02-21T07:19:08;94329.78;;;7.11;100.00
11345;BME280;5727;42.600;23.028;2024-02-21T07:21:35;94338.38;;;7.11;100.00
11345;BME280;5727;42.600;23.028;2024-02-21T07:24:04;94339.81;;;7.17;100.00
11345;BME280;5727;42.600;23.028;2024-02-21T07:26:31;94338.09;;;7.26;100.00
11345;BME280;5727;42.600;23.028;2024-02-21T07:28:58;94340.03;;;7.34;100.00
11345;BME280;5727;42.600;23.028;2024-02-21T07:31:27;94345.34;;;7.43;100.00
11345;BME280;5727;42.600;23.028;2024-02-21T07:33:54;94349.00;;;7.56;100.00
11345;BME280;5727;42.600;23.028;2024-02-21T07:36:27;94345.72;;;7.64;100.00
11345;BME280;5727;42.600;23.028;2024-02-21T07:38:55;94341.06;;;7.74;100.00
11345;BME280;5727;42.600;23.028;2024-02-21T07:41:22;94341.06;;;7.88;100.00
11345;BME280;5727;42.600;23.028;2024-02-21T07:43:49;94339.59;;;7.95;100.00
11345;BME280;5727;42.600;23.028;2024-02-21T07:46:17;94343.44;;;7.98;100.00
11345;BME280;5727;42.600;23.028;2024-02-21T07:48:46;94347.69;;;8.07;100.00
11345;BME280;5727;42.600;23.028;2024-02-21T07:54:40;94350.16;;;8.26;100.00
11345;BME280;5727;42.600;23.028;2024-02-21T07:57:07;94345.84;;;8.44;100.00
11345;BME280;5727;42.600;23.028;2024-02-21T07:59:34;94347.94;;;8.55;100.00
11345;BME280;5727;42.600;23.028;2024-02-21T08:02:01;94346.19;;;8.64;100.00
11345;BME280;5727;42.600;23.028;2024-02-21T08:04:33;94352.38;;;8.68;100.00
11345;BME280;5727;42.600;23.028;2024-02-21T08:07:00;94338.22;;;8.69;100.00
11345;BME280;5727;42.600;23.028;2024-02-21T08:09:29;94339.47;;;8.72;100.00
11345;BME280;5727;42.600;23.028;2024-02-21T08:11:56;94337.38;;;8.82;100.00
11345;BME280;5727;42.600;23.028;2024-02-21T08:14:24;94333.44;;;8.93;100.00
11345;BME280;5727;42.600;23.028;2024-02-21T08:16:51;94332.59;;;9.06;100.00
11345;BME280;5727;42.600;23.028;2024-02-21T08:19:20;94334.47;;;9.14;100.00
11345;BME280;5727;42.600;23.028;2024-02-21T08:21:49;94329.91;;;9.20;100.00
11345;BME280;5727;42.600;23.028;2024-02-21T08:24:16;94338.06;;;9.27;100.00
11345;BME280;5727;42.600;23.028;2024-02-21T08:26:43;94327.91;;;9.26;100.00
11345;BME280;5727;42.600;23.028;2024-02-21T08:29:11;94335.00;;;9.34;100.00
11345;BME280;5727;42.600;23.028;2024-02-21T08:31:38;94335.56;;;9.53;100.00
11345;BME280;5727;42.600;23.028;2024-02-21T08:34:05;94333.22;;;9.51;100.00
11345;BME280;5727;42.600;23.028;2024-02-21T08:36:33;94332.97;;;9.61;100.00
11345;BME280;5727;42.600;23.028;2024-02-21T08:39:03;94337.75;;;9.68;100.00
11345;BME280;5727;42.600;23.028;2024-02-21T08:41:30;94339.47;;;9.89;99.92
11345;BME280;5727;42.600;23.028;2024-02-21T08:43:58;94341.22;;;10.02;96.81
11345;BME280;5727;42.600;23.028;2024-02-21T08:46:24;94339.09;;;10.13;95.49
11345;BME280;5727;42.600;23.028;2024-02-21T08:48:52;94338.31;;;10.12;94.11
11345;BME280;5727;42.600;23.028;2024-02-21T08:51:19;94340.97;;;10.21;92.92
11345;BME280;5727;42.600;23.028;2024-02-21T08:53:47;94340.06;;;9.69;93.13
11345;BME280;5727;42.600;23.028;2024-02-21T08:56:16;94347.72;;;9.57;93.38
11345;BME280;5727;42.600;23.028;2024-02-21T08:58:43;94349.38;;;9.45;95.51
11345;BME280;5727;42.600;23.028;2024-02-21T09:01:10;94342.00;;;9.47;97.37
11345;BME280;5727;42.600;23.028;2024-02-21T09:03:37;94351.53;;;9.51;96.95
11345;BME280;5727;42.600;23.028;2024-02-21T09:06:05;94342.34;;;9.23;98.16
11345;BME280;5727;42.600;23.028;2024-02-21T09:08:32;94335.78;;;9.26;99.17
11345;BME280;5727;42.600;23.028;2024-02-21T09:11:00;94334.94;;;9.56;98.31
11345;BME280;5727;42.600;23.028;2024-02-21T09:13:29;94337.41;;;9.61;97.55
11345;BME280;5727;42.600;23.028;2024-02-21T09:15:56;94335.63;;;9.70;97.42
11345;BME280;5727;42.600;23.028;2024-02-21T09:18:23;94330.72;;;9.94;96.94
11345;BME280;5727;42.600;23.028;2024-02-21T09:20:50;94330.59;;;10.07;95.64
11345;BME280;5727;42.600;23.028;2024-02-21T09:23:17;94331.13;;;10.35;94.63
11345;BME280;5727;42.600;23.028;2024-02-21T09:25:46;94327.53;;;10.57;93.16
11345;BME280;5727;42.600;23.028;2024-02-21T09:28:16;94324.16;;;10.48;91.95
11345;BME280;5727;42.600;23.028;2024-02-21T09:30:44;94328.63;;;10.47;92.37
11345;BME280;5727;42.600;23.028;2024-02-21T09:33:12;94329.84;;;10.75;92.22
11345;BME280;5727;42.600;23.028;2024-02-21T09:35:39;94335.50;;;11.03;90.50
11345;BME280;5727;42.600;23.028;2024-02-21T09:38:06;94336.44;;;10.98;90.66
11345;BME280;5727;42.600;23.028;2024-02-21T09:40:33;94342.56;;;11.11;87.22
11345;BME280;5727;42.600;23.028;2024-02-21T09:43:04;94342.72;;;11.15;88.22
11345;BME280;5727;42.600;23.028;2024-02-21T09:45:33;94334.69;;;11.20;87.67
11345;BME280;5727;42.600;23.028;2024-02-21T09:48:21;94338.06;;;11.29;86.88
11345;BME280;5727;42.600;23.028;2024-02-21T09:50:53;94339.13;;;11.28;86.77
11345;BME280;5727;42.600;23.028;2024-02-21T09:53:24;94342.97;;;11.39;85.15
11345;BME280;5727;42.600;23.028;2024-02-21T09:55:52;94344.34;;;10.47;89.35
11345;BME280;5727;42.600;23.028;2024-02-21T09:58:22;94345.97;;;9.83;94.39
11345;BME280;5727;42.600;23.028;2024-02-21T10:00:52;94344.06;;;9.67;94.73
11345;BME280;5727;42.600;23.028;2024-02-21T10:03:20;94341.00;;;9.82;94.67
11345;BME280;5727;42.600;23.028;2024-02-21T10:05:49;94340.41;;;9.93;93.12
11345;BME280;5727;42.600;23.028;2024-02-21T10:08:18;94335.03;;;9.81;92.74
11345;BME280;5727;42.600;23.028;2024-02-21T10:10:46;94324.22;;;9.66;92.76
11345;BME280;5727;42.600;23.028;2024-02-21T10:13:24;94320.38;;;9.80;92.41
11345;BME280;5727;42.600;23.028;2024-02-21T10:16:01;94317.81;;;10.06;90.08
11345;BME280;5727;42.600;23.028;2024-02-21T10:18:30;94311.69;;;10.36;88.63
11345;BME280;5727;42.600;23.028;2024-02-21T10:21:04;94303.34;;;10.51;86.95
11345;BME280;5727;42.600;23.028;2024-02-21T10:23:41;94303.03;;;10.53;86.83
11345;BME280;5727;42.600;23.028;2024-02-21T10:26:09;94298.97;;;10.89;85.32
11345;BME280;5727;42.600;23.028;2024-02-21T10:28:37;94294.91;;;11.18;84.96
11345;BME280;5727;42.600;23.028;2024-02-21T10:31:08;94291.66;;;11.50;84.49
11345;BME280;5727;42.600;23.028;2024-02-21T10:33:37;94291.75;;;11.70;82.17
11345;BME280;5727;42.600;23.028;2024-02-21T10:36:08;94286.16;;;11.72;77.08
11345;BME280;5727;42.600;23.028;2024-02-21T10:38:37;94290.03;;;11.37;76.61
11345;BME280;5727;42.600;23.028;2024-02-21T10:41:05;94288.34;;;10.86;79.23
11345;BME280;5727;42.600;23.028;2024-02-21T10:43:37;94284.38;;;10.63;80.99
11345;BME280;5727;42.600;23.028;2024-02-21T10:46:06;94275.84;;;10.91;80.96
11345;BME280;5727;42.600;23.028;2024-02-21T10:48:45;94265.47;;;11.12;79.45
11345;BME280;5727;42.600;23.028;2024-02-21T10:51:15;94275.59;;;10.59;81.16
11345;BME280;5727;42.600;23.028;2024-02-21T10:53:45;94273.50;;;10.09;82.08
11345;BME280;5727;42.600;23.028;2024-02-21T10:56:22;94269.34;;;10.26;79.92
11345;BME280;5727;42.600;23.028;2024-02-21T10:58:50;94266.22;;;9.98;80.15
11345;BME280;5727;42.600;23.028;2024-02-21T11:01:18;94261.19;;;10.10;79.85
11345;BME280;5727;42.600;23.028;2024-02-21T11:03:59;94261.94;;;10.19;79.89
11345;BME280;5727;42.600;23.028;2024-02-21T11:06:29;94253.31;;;10.10;80.46
11345;BME280;5727;42.600;23.028;2024-02-21T11:09:00;94255.59;;;10.03;81.43
11345;BME280;5727;42.600;23.028;2024-02-21T11:11:28;94258.81;;;10.08;81.29
11345;BME280;5727;42.600;23.028;2024-02-21T11:14:04;94246.97;;;10.45;81.04
11345;BME280;5727;42.600;23.028;2024-02-21T11:19:55;94243.72;;;11.03;79.65
11345;BME280;5727;42.600;23.028;2024-02-21T11:22:22;94242.59;;;11.21;77.48
11345;BME280;5727;42.600;23.028;2024-02-21T11:24:54;94237.28;;;11.00;75.87
11345;BME280;5727;42.600;23.028;2024-02-21T11:27:23;94235.53;;;10.67;76.81
11345;BME280;5727;42.600;23.028;2024-02-21T11:29:54;94241.13;;;10.40;77.14
11345;BME280;5727;42.600;23.028;2024-02-21T11:32:22;94229.56;;;10.32;78.57
11345;BME280;5727;42.600;23.028;2024-02-21T11:34:57;94234.97;;;10.27;78.78
11345;BME280;5727;42.600;23.028;2024-02-21T11:37:28;94231.59;;;10.35;79.92
11345;BME280;5727;42.600;23.028;2024-02-21T11:39:55;94232.16;;;10.49;79.35
11345;BME280;5727;42.600;23.028;2024-02-21T11:42:22;94222.47;;;10.50;79.11
11345;BME280;5727;42.600;23.028;2024-02-21T11:44:49;94226.78;;;10.46;78.71
11345;BME280;5727;42.600;23.028;2024-02-21T11:47:16;94225.75;;;10.21;78.83
11345;BME280;5727;42.600;23.028;2024-02-21T11:49:45;94214.63;;;10.07;79.45
11345;BME280;5727;42.600;23.028;2024-02-21T11:52:16;94224.66;;;9.96;80.89
11345;BME280;5727;42.600;23.028;2024-02-21T11:54:44;94219.41;;;9.96;81.33
11345;BME280;5727;42.600;23.028;2024-02-21T11:57:11;94216.94;;;9.91;81.84
11345;BME280;5727;42.600;23.028;2024-02-21T11:59:40;94211.88;;;9.86;83.14
11345;BME280;5727;42.600;23.028;2024-02-21T12:02:07;94208.63;;;9.98;83.98
11345;BME280;5727;42.600;23.028;2024-02-21T12:04:35;94214.63;;;10.24;83.39
11345;BME280;5727;42.600;23.028;2024-02-21T12:07:03;94203.25;;;10.37;83.84
11345;BME280;5727;42.600;23.028;2024-02-21T12:09:33;94206.16;;;10.36;84.51
11345;BME280;5727;42.600;23.028;2024-02-21T12:12:02;94208.28;;;10.51;83.46
11345;BME280;5727;42.600;23.028;2024-02-21T12:14:31;94205.50;;;10.47;83.54
11345;BME280;5727;42.600;23.028;2024-02-21T12:16:58;94200.41;;;10.59;83.83
11345;BME280;5727;42.600;23.028;2024-02-21T12:19:28;94207.53;;;10.50;82.81
11345;BME280;5727;42.600;23.028;2024-02-21T12:21:55;94199.25;;;10.31;84.23
11345;BME280;5727;42.600;23.028;2024-02-21T12:24:24;94200.44;;;10.42;84.63
11345;BME280;5727;42.600;23.028;2024-02-21T12:26:54;94194.13;;;10.43;85.46
11345;BME280;5727;42.600;23.028;2024-02-21T12:29:22;94196.16;;;10.21;87.55
11345;BME280;5727;42.600;23.028;2024-02-21T12:31:50;94195.38;;;10.20;87.56
11345;BME280;5727;42.600;23.028;2024-02-21T12:34:17;94194.63;;;10.11;85.11
11345;BME280;5727;42.600;23.028;2024-02-21T12:36:45;94187.06;;;10.27;85.59
11345;BME280;5727;42.600;23.028;2024-02-21T12:39:13;94201.41;;;10.29;84.46
11345;BME280;5727;42.600;23.028;2024-02-21T12:41:40;94184.13;;;10.28;85.62
11345;BME280;5727;42.600;23.028;2024-02-21T12:44:10;94179.06;;;10.23;86.88
11345;BME280;5727;42.600;23.028;2024-02-21T12:46:38;94177.34;;;10.44;86.20
11345;BME280;5727;42.600;23.028;2024-02-21T12:49:06;94175.03;;;10.43;86.66
11345;BME280;5727;42.600;23.028;2024-02-21T12:51:34;94176.59;;;10.27;87.42
11345;BME280;5727;42.600;23.028;2024-02-21T12:54:01;94176.00;;;10.30;87.17
11345;BME280;5727;42.600;23.028;2024-02-21T12:56:28;94178.28;;;10.31;86.08
11345;BME280;5727;42.600;23.028;2024-02-21T12:58:56;94173.09;;;10.14;83.64
11345;BME280;5727;42.600;23.028;2024-02-21T13:01:25;94170.28;;;10.02;83.29
11345;BME280;5727;42.600;23.028;2024-02-21T13:03:53;94183.56;;;9.97;82.77
11345;BME280;5727;42.600;23.028;2024-02-21T13:06:21;94169.22;;;9.86;85.82
11345;BME280;5727;42.600;23.028;2024-02-21T13:08:48;94166.00;;;9.89;87.23
11345;BME280;5727;42.600;23.028;2024-02-21T13:11:15;94166.75;;;9.98;87.52
11345;BME280;5727;42.600;23.028;2024-02-21T13:13:42;94160.47;;;10.16;86.82